Time;durP1;ratioP1;P1;durP2;ratioP2;P2;SDS_P1;SDS_P2;PMS_P1;PMS_P2;Temp;Humidity;BMP_temperature;BMP_pressure;BME280_temperature;BME280_humidity;BME280_pressure;Samples;Min_cycle;Max_cycle;Signal;HPM_P1;HPM_P2
2022/11/26 00:01:16;;;;;;;28.77;11.77;;;7.80;99.90;;;;;;5005285;28;20658;-86
2022/11/26 00:03:43;;;;;;;23.33;11.63;;;7.90;99.90;;;;;;5015650;28;20206;-84
2022/11/26 00:06:32;;;;;;;20.60;12.27;;;7.90;99.90;;;;;;4993357;28;20186;-85
2022/11/26 00:08:59;;;;;;;22.70;11.37;;;8.00;99.90;;;;;;5012465;28;20202;-84
2022/11/26 00:11:25;;;;;;;25.20;11.83;;;8.00;99.90;;;;;;5010347;28;20615;-85
2022/11/26 00:13:51;;;;;;;22.53;11.67;;;8.00;99.90;;;;;;4992323;28;20171;-82
2022/11/26 00:16:17;;;;;;;24.33;11.67;;;8.10;99.90;;;;;;5011750;28;20324;-85
2022/11/26 00:18:43;;;;;;;22.53;11.13;;;8.20;99.90;;;;;;4990057;28;20175;-86
2022/11/26 00:21:26;;;;;;;25.00;11.23;;;8.20;99.90;;;;;;5009014;28;20746;-86
2022/11/26 00:23:53;;;;;;;28.27;11.90;;;8.30;99.90;;;;;;5012710;28;20205;-84
2022/11/26 00:26:28;;;;;;;28.40;12.40;;;8.20;99.90;;;;;;5015267;28;20150;-85
2022/11/26 00:28:59;;;;;;;22.23;10.83;;;8.10;99.90;;;;;;5028101;28;20204;-85
2022/11/26 00:31:27;;;;;;;29.37;11.43;;;8.00;99.90;;;;;;5004976;28;20299;-84
2022/11/26 00:33:53;;;;;;;25.50;11.87;;;8.00;99.90;;;;;;5015061;28;20186;-83
2022/11/26 00:36:24;;;;;;;27.63;10.57;;;8.00;99.90;;;;;;5039115;28;20171;-87
2022/11/26 00:38:54;;;;;;;22.03;10.53;;;8.00;99.90;;;;;;5034994;28;20301;-85
2022/11/26 00:41:55;;;;;;;26.90;10.67;;;8.40;99.90;;;;;;5028619;28;20649;-84
2022/11/26 00:44:23;;;;;;;23.40;10.67;;;8.00;99.90;;;;;;4998170;28;20248;-86
2022/11/26 00:46:49;;;;;;;25.83;10.20;;;7.80;99.90;;;;;;5015831;28;20194;-86
2022/11/26 00:49:16;;;;;;;30.07;10.93;;;7.80;99.90;;;;;;5015334;28;20194;-85
2022/11/26 00:51:43;;;;;;;19.97;9.77;;;7.90;99.90;;;;;;5015333;28;20163;-84
2022/11/26 00:54:15;;;;;;;26.30;10.63;;;7.80;99.90;;;;;;4997457;28;20577;-86
2022/11/26 00:56:41;;;;;;;24.23;10.13;;;7.80;99.90;;;;;;4996678;28;20174;-86
2022/11/26 00:59:13;;;;;;;28.80;10.40;;;7.80;99.90;;;;;;4997722;28;20180;-85
2022/11/26 01:01:39;;;;;;;25.83;9.73;;;7.70;99.90;;;;;;5014819;28;20593;-85
2022/11/26 01:04:04;;;;;;;20.23;9.57;;;7.70;99.90;;;;;;4999517;28;20240;-87
2022/11/26 01:06:37;;;;;;;26.37;10.80;;;7.70;99.90;;;;;;5020502;28;20193;-84
2022/11/26 01:09:12;;;;;;;18.07;9.90;;;7.60;99.90;;;;;;5026156;28;20162;-86
2022/11/26 01:11:37;;;;;;;23.23;9.20;;;7.70;99.90;;;;;;5023751;28;20165;-84
2022/11/26 01:14:04;;;;;;;19.47;9.77;;;7.60;99.90;;;;;;5024447;28;20162;-84
2022/11/26 01:16:38;;;;;;;20.80;9.57;;;7.50;99.90;;;;;;5005654;28;20245;-84
2022/11/26 01:19:04;;;;;;;19.63;8.60;;;7.50;99.90;;;;;;5018672;28;20245;-83
2022/11/26 01:21:32;;;;;;;23.97;10.57;;;7.50;99.90;;;;;;5015464;28;20224;-85
2022/11/26 01:23:57;;;;;;;20.77;9.90;;;7.50;99.90;;;;;;5015310;28;20182;-84
2022/11/26 01:26:26;;;;;;;28.13;11.60;;;7.50;99.90;;;;;;5014872;28;20630;-86
2022/11/26 01:28:52;;;;;;;28.47;9.87;;;7.60;99.90;;;;;;5015000;28;20700;-84
2022/11/26 01:31:24;;;;;;;22.80;10.27;;;7.50;99.90;;;;;;4996636;28;20186;-85
2022/11/26 01:33:52;;;;;;;17.70;9.77;;;7.50;99.90;;;;;;5014464;28;20225;-85
2022/11/26 01:36:24;;;;;;;23.83;10.30;;;7.50;99.90;;;;;;5013464;28;20171;-80
2022/11/26 01:38:59;;;;;;;20.33;9.97;;;7.60;99.90;;;;;;5016223;28;20170;-82
2022/11/26 01:41:53;;;;;;;25.13;11.07;;;7.70;99.90;;;;;;5018827;28;20170;-84
2022/11/26 01:44:24;;;;;;;23.03;10.13;;;7.60;99.90;;;;;;5017051;28;20221;-85
2022/11/26 01:46:51;;;;;;;21.90;9.53;;;7.60;99.90;;;;;;5017544;28;20545;-81
2022/11/26 01:49:33;;;;;;;25.87;10.53;;;7.60;99.90;;;;;;5018218;28;20513;-86
2022/11/26 01:52:26;;;;;;;28.63;10.83;;;7.50;99.90;;;;;;5018316;28;20579;-82
2022/11/26 01:54:52;;;;;;;25.37;10.53;;;7.70;99.90;;;;;;5012916;28;20182;-82
2022/11/26 01:57:30;;;;;;;26.60;9.83;;;7.50;99.90;;;;;;5017407;28;20166;-87
2022/11/26 02:00:02;;;;;;;27.57;10.33;;;7.40;99.90;;;;;;5000877;28;20170;-87
2022/11/26 02:02:29;;;;;;;23.47;9.80;;;7.40;99.90;;;;;;5018105;28;20202;-82
2022/11/26 02:05:19;;;;;;;22.33;9.97;;;7.30;99.90;;;;;;5017544;28;20233;-86
2022/11/26 02:07:46;;;;;;;19.50;9.87;;;7.30;99.90;;;;;;5017814;28;20162;-86
2022/11/26 02:10:12;;;;;;;21.23;9.33;;;7.30;99.90;;;;;;5021947;28;20174;-85
2022/11/26 02:12:39;;;;;;;20.80;9.57;;;7.30;99.90;;;;;;5009248;28;20174;-80
2022/11/26 02:15:06;;;;;;;20.43;9.60;;;7.30;99.90;;;;;;5018699;28;20174;-82
2022/11/26 02:17:47;;;;;;;26.47;9.30;;;7.20;99.90;;;;;;5007611;28;20171;-82
2022/11/26 02:21:10;;;;;;;22.90;9.03;;;7.20;99.90;;;;;;5039870;28;20214;-81
2022/11/26 02:23:54;;;;;;;18.53;8.23;;;7.10;99.90;;;;;;4941292;29;20249;-82
2022/11/26 02:26:42;;;;;;;23.47;8.73;;;7.00;99.90;;;;;;5015086;28;20217;-80
2022/11/26 02:32:21;;;;;;;23.60;9.20;;;7.00;99.90;;;;;;5016940;28;20682;-82
2022/11/26 02:35:25;;;;;;;19.37;7.73;;;7.00;99.90;;;;;;4998996;28;20174;-80
2022/11/26 02:37:54;;;;;;;19.77;8.93;;;7.10;99.90;;;;;;4917556;29;20264;-81
2022/11/26 02:40:21;;;;;;;22.57;8.83;;;7.10;99.90;;;;;;4983199;28;20186;-80
2022/11/26 02:42:46;;;;;;;24.07;8.60;;;7.00;99.90;;;;;;5016190;28;20194;-80
2022/11/26 02:45:17;;;;;;;20.80;8.80;;;7.00;99.90;;;;;;5016337;28;20197;-80
2022/11/26 02:47:46;;;;;;;22.10;8.67;;;7.10;99.90;;;;;;5016977;28;20189;-84
2022/11/26 02:50:23;;;;;;;16.10;8.83;;;7.00;99.90;;;;;;5016543;28;20171;-85
2022/11/26 02:52:51;;;;;;;17.90;7.97;;;7.00;99.90;;;;;;5000295;28;20208;-85
2022/11/26 02:55:21;;;;;;;16.57;7.83;;;7.00;99.90;;;;;;5018304;28;20505;-83
2022/11/26 02:57:49;;;;;;;22.77;8.07;;;7.00;99.90;;;;;;5018502;28;20613;-85
2022/11/26 03:00:17;;;;;;;19.27;8.03;;;7.00;99.90;;;;;;5018753;28;20174;-85
2022/11/26 03:02:51;;;;;;;18.40;7.93;;;6.90;99.90;;;;;;5018615;28;20752;-85
2022/11/26 03:05:17;;;;;;;22.67;8.33;;;7.00;99.90;;;;;;5013046;28;20185;-84
2022/11/26 03:07:47;;;;;;;17.00;7.70;;;7.00;99.90;;;;;;5023021;28;20166;-85
2022/11/26 03:10:13;;;;;;;16.73;7.67;;;6.90;99.90;;;;;;5040448;28;20182;-83
2022/11/26 03:12:46;;;;;;;24.10;8.57;;;6.90;99.90;;;;;;5034048;28;20171;-85
2022/11/26 03:15:15;;;;;;;19.00;7.43;;;7.10;99.90;;;;;;5008886;28;20274;-85
2022/11/26 03:17:43;;;;;;;15.07;7.63;;;7.00;99.90;;;;;;5018007;28;20261;-84
2022/11/26 03:20:10;;;;;;;16.63;7.50;;;7.00;99.90;;;;;;5011849;28;20643;-85
2022/11/26 03:22:36;;;;;;;20.93;7.80;;;7.10;99.90;;;;;;5016656;28;20535;-86
2022/11/26 03:25:02;;;;;;;22.37;7.40;;;7.10;99.90;;;;;;4998487;28;20204;-84
2022/11/26 03:27:28;;;;;;;21.80;7.77;;;7.10;99.90;;;;;;4998979;28;20178;-84
2022/11/26 03:29:55;;;;;;;17.13;7.87;;;7.00;99.90;;;;;;5016111;28;20185;-85
2022/11/26 03:32:20;;;;;;;14.50;7.40;;;7.00;99.90;;;;;;4998602;28;20794;-86
2022/11/26 03:34:46;;;;;;;19.53;7.30;;;7.00;99.90;;;;;;5016596;28;20227;-85
2022/11/26 03:37:13;;;;;;;19.07;7.90;;;7.00;99.90;;;;;;5017202;28;20257;-84
2022/11/26 03:39:40;;;;;;;20.40;7.30;;;7.10;99.90;;;;;;5017974;28;20170;-84
2022/11/26 03:42:06;;;;;;;25.63;6.90;;;7.10;99.90;;;;;;5016394;28;20200;-85
2022/11/26 03:44:33;;;;;;;13.70;6.60;;;7.00;99.90;;;;;;4999184;28;20261;-84
2022/11/26 03:46:59;;;;;;;18.07;7.43;;;7.00;99.90;;;;;;5019040;28;20253;-84
2022/11/26 03:49:26;;;;;;;17.93;7.27;;;7.00;99.90;;;;;;5023178;28;20178;-86
2022/11/26 03:51:52;;;;;;;19.97;7.60;;;7.10;99.90;;;;;;5001816;28;20170;-83
2022/11/26 03:54:17;;;;;;;19.07;7.47;;;7.20;99.90;;;;;;5008276;28;20189;-85
2022/11/26 03:56:43;;;;;;;16.60;7.10;;;7.00;99.90;;;;;;5025845;28;20174;-85
2022/11/26 03:59:09;;;;;;;19.80;7.23;;;7.10;99.90;;;;;;5003614;28;20171;-85
2022/11/26 04:01:38;;;;;;;18.27;6.80;;;7.10;99.90;;;;;;5017236;28;20566;-85
2022/11/26 04:04:04;;;;;;;18.73;6.90;;;7.10;99.90;;;;;;4998609;28;20596;-78
2022/11/26 04:06:29;;;;;;;19.93;7.67;;;7.10;99.90;;;;;;4984611;28;20250;-80
2022/11/26 04:08:56;;;;;;;21.30;7.40;;;7.00;99.90;;;;;;5018916;28;20175;-80
2022/11/26 04:11:22;;;;;;;15.57;6.47;;;7.10;99.90;;;;;;5001011;28;20706;-84
2022/11/26 04:13:47;;;;;;;20.47;7.37;;;7.30;99.90;;;;;;5018293;28;20194;-83
2022/11/26 04:16:13;;;;;;;21.47;7.67;;;7.40;99.90;;;;;;5000435;28;20650;-82
2022/11/26 04:18:39;;;;;;;18.00;6.83;;;7.50;99.90;;;;;;5019861;28;20166;-81
2022/11/26 04:21:06;;;;;;;28.70;8.13;;;7.40;99.90;;;;;;5025468;28;20174;-84
2022/11/26 04:23:32;;;;;;;21.13;7.23;;;7.40;99.90;;;;;;5011112;28;20234;-79
2022/11/26 04:25:58;;;;;;;20.73;7.73;;;7.50;99.90;;;;;;5011114;28;20174;-83
2022/11/26 04:28:24;;;;;;;18.20;6.23;;;7.30;99.90;;;;;;5016222;28;20174;-82
2022/11/26 04:30:49;;;;;;;19.03;7.87;;;7.20;99.90;;;;;;5016090;28;20194;-85
2022/11/26 04:33:18;;;;;;;19.40;7.50;;;7.30;99.90;;;;;;4998124;28;20240;-84
2022/11/26 04:35:48;;;;;;;20.43;6.77;;;7.30;99.90;;;;;;5017254;28;20700;-84
2022/11/26 04:38:17;;;;;;;20.07;7.23;;;7.30;99.90;;;;;;5000493;28;20182;-86
2022/11/26 04:40:43;;;;;;;19.77;6.60;;;7.20;99.90;;;;;;5000520;28;20793;-86
2022/11/26 04:43:08;;;;;;;21.57;7.43;;;7.30;99.90;;;;;;5001184;28;20249;-80
2022/11/26 04:45:34;;;;;;;14.80;6.83;;;7.20;99.90;;;;;;4998450;28;20174;-78
2022/11/26 04:48:00;;;;;;;18.07;6.60;;;7.30;99.90;;;;;;4997984;28;20209;-79
2022/11/26 04:50:25;;;;;;;20.47;6.93;;;7.20;99.90;;;;;;4997135;28;20676;-81
2022/11/26 04:52:51;;;;;;;22.10;7.77;;;7.40;99.90;;;;;;5014777;28;20643;-81
2022/11/26 04:55:17;;;;;;;21.10;6.57;;;7.30;99.90;;;;;;4997445;28;20178;-81
2022/11/26 04:57:43;;;;;;;20.83;6.93;;;7.30;99.90;;;;;;5014704;28;20178;-81
2022/11/26 05:00:10;;;;;;;20.10;7.53;;;7.20;99.90;;;;;;5014039;28;20634;-81
2022/11/26 05:02:36;;;;;;;17.03;6.70;;;7.20;99.90;;;;;;5018381;28;20226;-80
2022/11/26 05:05:02;;;;;;;21.13;6.90;;;7.20;99.90;;;;;;5000852;28;20174;-81
2022/11/26 05:07:27;;;;;;;23.13;6.20;;;7.30;99.90;;;;;;5000660;28;20182;-80
2022/11/26 05:09:53;;;;;;;21.93;6.63;;;7.40;99.90;;;;;;5016839;28;20190;-79
2022/11/26 05:12:20;;;;;;;18.17;6.23;;;7.60;99.90;;;;;;5019188;28;20177;-83
2022/11/26 05:14:46;;;;;;;22.40;7.10;;;7.50;99.90;;;;;;5035737;28;20182;-81
2022/11/26 05:17:11;;;;;;;19.17;7.43;;;7.40;99.90;;;;;;5033017;28;20178;-80
2022/11/26 05:19:37;;;;;;;32.37;7.50;;;7.20;99.90;;;;;;5027290;28;20182;-79
2022/11/26 05:22:02;;;;;;;21.30;6.57;;;7.30;99.90;;;;;;5023550;28;20205;-81
2022/11/26 05:24:31;;;;;;;18.80;7.17;;;7.20;99.90;;;;;;5014453;28;20170;-81
2022/11/26 05:26:57;;;;;;;18.83;7.37;;;7.20;99.90;;;;;;4996532;28;20548;-80
2022/11/26 05:29:26;;;;;;;16.40;6.37;;;7.10;99.90;;;;;;5014961;28;20233;-84
2022/11/26 05:31:55;;;;;;;18.27;7.47;;;7.10;99.90;;;;;;5016880;28;20272;-83
2022/11/26 05:34:20;;;;;;;19.37;7.17;;;7.10;99.90;;;;;;5000535;28;20586;-86
2022/11/26 05:36:46;;;;;;;16.57;6.33;;;7.00;99.90;;;;;;5030507;28;20239;-84
2022/11/26 05:39:15;;;;;;;19.83;7.33;;;7.10;99.90;;;;;;5037723;28;20180;-83
2022/11/26 05:41:41;;;;;;;24.67;7.00;;;7.10;99.90;;;;;;5036879;28;20227;-84
2022/11/26 05:44:13;;;;;;;21.60;7.97;;;7.10;99.90;;;;;;5015614;28;20190;-86
2022/11/26 05:46:41;;;;;;;16.17;6.73;;;7.00;99.90;;;;;;5001822;28;20209;-86
2022/11/26 05:49:14;;;;;;;18.53;7.00;;;7.00;99.90;;;;;;5015143;28;20155;-84
2022/11/26 05:51:40;;;;;;;17.27;6.53;;;6.90;99.90;;;;;;4997850;28;20174;-86
2022/11/26 05:54:06;;;;;;;19.00;6.67;;;6.90;99.90;;;;;;4997343;28;20510;-86
2022/11/26 05:56:32;;;;;;;23.30;6.67;;;6.90;99.90;;;;;;4997222;28;20181;-86
2022/11/26 05:58:57;;;;;;;17.50;6.70;;;6.90;99.90;;;;;;4996769;28;20208;-86
2022/11/26 06:01:23;;;;;;;22.40;7.13;;;6.90;99.90;;;;;;5014420;28;20568;-86
2022/11/26 06:03:49;;;;;;;18.60;7.53;;;6.90;99.90;;;;;;4996772;28;20218;-86
2022/11/26 06:06:17;;;;;;;24.00;7.27;;;7.00;99.90;;;;;;5014222;28;20524;-86
2022/11/26 06:08:42;;;;;;;18.87;7.87;;;7.10;99.90;;;;;;5014253;28;20170;-85
2022/11/26 06:11:11;;;;;;;21.10;7.47;;;7.10;99.90;;;;;;5021276;28;20177;-83
2022/11/26 06:13:37;;;;;;;19.43;7.03;;;7.10;99.90;;;;;;5021003;28;20190;-81
2022/11/26 06:16:03;;;;;;;18.30;6.63;;;7.10;99.90;;;;;;5016809;28;20175;-81
2022/11/26 06:18:28;;;;;;;22.97;6.83;;;7.00;99.90;;;;;;5019526;28;20236;-87
2022/11/26 06:20:58;;;;;;;21.33;6.77;;;7.00;99.90;;;;;;5023145;28;20626;-85
2022/11/26 06:23:23;;;;;;;16.33;7.40;;;7.00;99.90;;;;;;4986380;28;20218;-80
2022/11/26 06:25:49;;;;;;;17.13;6.87;;;7.00;99.90;;;;;;5002823;28;20174;-83
2022/11/26 06:28:15;;;;;;;18.10;6.97;;;7.00;99.90;;;;;;5001182;28;20182;-80
2022/11/26 06:30:43;;;;;;;17.17;7.03;;;7.00;99.90;;;;;;5017246;28;20610;-83
2022/11/26 06:33:10;;;;;;;19.03;7.53;;;7.00;99.90;;;;;;5001141;28;20209;-85
2022/11/26 06:35:36;;;;;;;17.63;7.13;;;7.20;99.90;;;;;;5004371;28;20171;-85
2022/11/26 06:38:03;;;;;;;17.87;7.17;;;7.10;99.90;;;;;;5007081;28;20178;-87
2022/11/26 06:40:28;;;;;;;20.30;7.77;;;7.10;99.90;;;;;;5020487;28;20175;-85
2022/11/26 06:42:54;;;;;;;17.20;7.43;;;7.20;99.90;;;;;;4999141;28;20697;-85
2022/11/26 06:45:22;;;;;;;18.93;7.57;;;7.30;99.90;;;;;;5016830;28;20197;-81
2022/11/26 06:47:50;;;;;;;17.73;7.67;;;7.30;99.90;;;;;;5016275;28;20170;-83
2022/11/26 06:50:21;;;;;;;20.43;7.53;;;7.40;99.90;;;;;;5016947;28;20614;-85
2022/11/26 06:52:53;;;;;;;18.23;6.90;;;7.30;99.90;;;;;;5001301;28;20252;-84
2022/11/26 06:55:20;;;;;;;19.03;7.40;;;7.10;99.90;;;;;;5019993;28;20725;-81
2022/11/26 06:57:50;;;;;;;17.23;7.10;;;7.20;99.90;;;;;;5004105;28;20283;-79
2022/11/26 07:00:16;;;;;;;18.43;7.37;;;7.30;99.90;;;;;;5002014;28;20237;-82
2022/11/26 07:02:42;;;;;;;21.43;7.60;;;7.40;99.90;;;;;;4999221;28;20222;-82
2022/11/26 07:05:08;;;;;;;16.50;7.67;;;7.40;99.90;;;;;;5016293;28;20178;-83
2022/11/26 07:07:36;;;;;;;22.27;8.37;;;7.40;99.90;;;;;;5018042;28;20245;-82
2022/11/26 07:10:02;;;;;;;27.30;7.50;;;7.50;99.90;;;;;;5021025;28;20619;-80
2022/11/26 07:12:29;;;;;;;24.10;8.30;;;7.40;99.90;;;;;;5021259;28;20259;-80
2022/11/26 07:14:55;;;;;;;23.37;7.83;;;7.30;99.90;;;;;;5021753;28;20523;-82
2022/11/26 07:17:20;;;;;;;23.63;7.10;;;7.30;99.90;;;;;;5004451;28;20175;-84
2022/11/26 07:19:46;;;;;;;20.00;7.80;;;7.20;99.90;;;;;;5021058;28;20171;-85
2022/11/26 07:22:12;;;;;;;23.10;8.00;;;7.20;99.90;;;;;;5003496;28;20233;-84
2022/11/26 07:24:37;;;;;;;25.00;8.30;;;7.20;99.90;;;;;;5002688;28;20174;-83
2022/11/26 07:27:03;;;;;;;21.10;7.57;;;7.20;99.90;;;;;;5003721;28;20240;-84
2022/11/26 07:29:31;;;;;;;18.80;7.87;;;7.20;99.90;;;;;;5007697;28;20171;-86
2022/11/26 07:31:58;;;;;;;17.93;7.13;;;7.40;99.90;;;;;;4987787;28;20202;-84
2022/11/26 07:34:23;;;;;;;15.77;6.83;;;7.50;99.90;;;;;;5015557;28;20174;-81
2022/11/26 07:36:49;;;;;;;16.80;7.60;;;7.40;99.90;;;;;;4997649;28;20635;-82
2022/11/26 07:39:15;;;;;;;16.23;7.33;;;7.50;99.90;;;;;;4997751;28;20178;-84
2022/11/26 07:41:41;;;;;;;20.40;7.70;;;7.50;99.90;;;;;;5016150;28;20654;-83
2022/11/26 07:44:12;;;;;;;22.33;8.00;;;7.60;99.90;;;;;;5036328;28;20194;-83
2022/11/26 07:46:37;;;;;;;20.17;7.70;;;7.50;99.90;;;;;;5021059;28;20233;-83
2022/11/26 07:49:04;;;;;;;18.17;7.40;;;7.50;99.90;;;;;;5036791;28;20171;-86
2022/11/26 07:51:46;;;;;;;25.50;8.63;;;7.60;99.90;;;;;;5022346;28;20309;-80
2022/11/26 07:54:13;;;;;;;25.77;8.63;;;7.60;99.90;;;;;;5021629;28;20174;-85
2022/11/26 07:56:41;;;;;;;18.70;7.40;;;7.60;99.90;;;;;;4999419;28;20167;-81
2022/11/26 07:59:18;;;;;;;20.40;6.60;;;7.70;99.90;;;;;;4999540;28;20193;-79
2022/11/26 08:01:44;;;;;;;19.10;7.00;;;7.70;99.90;;;;;;4999178;28;20198;-79
2022/11/26 08:04:10;;;;;;;16.57;7.00;;;7.90;99.90;;;;;;5015320;28;20296;-79
2022/11/26 08:06:36;;;;;;;20.57;7.47;;;7.80;99.90;;;;;;5016586;28;20182;-82
2022/11/26 08:09:03;;;;;;;23.63;7.63;;;7.80;99.90;;;;;;5000360;28;20696;-82
2022/11/26 08:11:31;;;;;;;28.40;7.47;;;7.80;99.90;;;;;;4984297;28;20273;-83
2022/11/26 08:13:59;;;;;;;30.30;8.10;;;8.00;99.90;;;;;;5018228;28;20692;-84
2022/11/26 08:16:25;;;;;;;25.47;7.37;;;8.10;99.90;;;;;;5018615;28;20162;-82
2022/11/26 08:18:59;;;;;;;21.47;6.63;;;8.20;99.90;;;;;;5001733;28;20189;-86
2022/11/26 08:21:26;;;;;;;25.03;7.27;;;8.20;99.90;;;;;;5020527;28;20163;-86
2022/11/26 08:23:53;;;;;;;24.30;7.17;;;8.00;99.90;;;;;;5002334;28;20217;-86
2022/11/26 08:26:20;;;;;;;17.40;8.00;;;8.00;99.90;;;;;;5024810;28;20173;-79
2022/11/26 08:28:46;;;;;;;20.43;6.97;;;8.00;99.90;;;;;;5011306;28;20174;-79
2022/11/26 08:31:14;;;;;;;23.67;7.80;;;8.20;99.90;;;;;;5019622;28;20281;-81
2022/11/26 08:33:41;;;;;;;24.50;8.93;;;8.10;99.90;;;;;;5006620;28;20197;-86
2022/11/26 08:36:08;;;;;;;22.10;8.50;;;8.20;99.90;;;;;;5020902;28;20177;-87
2022/11/26 08:38:34;;;;;;;24.63;8.77;;;8.30;99.90;;;;;;5003083;28;20197;-81
2022/11/26 08:41:05;;;;;;;28.30;10.97;;;8.40;99.90;;;;;;5038022;28;20185;-81
2022/11/26 08:43:30;;;;;;;22.43;9.27;;;8.50;99.90;;;;;;5032822;28;20245;-86
2022/11/26 08:45:58;;;;;;;18.53;8.30;;;8.50;99.90;;;;;;5018709;28;20669;-86
2022/11/26 08:48:26;;;;;;;17.43;7.13;;;8.60;99.90;;;;;;5001789;28;20205;-86
2022/11/26 08:51:11;;;;;;;20.20;8.23;;;8.60;99.90;;;;;;4998091;28;20229;-81
2022/11/26 08:53:38;;;;;;;28.17;8.30;;;8.60;99.90;;;;;;4983591;28;20187;-81
2022/11/26 08:56:07;;;;;;;21.50;7.40;;;8.70;99.90;;;;;;4994939;28;20277;-87
2022/11/26 08:58:37;;;;;;;25.70;7.17;;;8.80;99.90;;;;;;5003512;28;20250;-78
2022/11/26 09:01:10;;;;;;;19.43;6.90;;;8.80;99.90;;;;;;5003294;28;20159;-83
2022/11/26 09:03:39;;;;;;;18.30;7.20;;;8.90;99.90;;;;;;4992156;28;20218;-86
2022/11/26 09:06:06;;;;;;;16.03;7.23;;;9.10;99.90;;;;;;5003235;28;20241;-85
2022/11/26 09:08:43;;;;;;;16.73;7.03;;;9.20;99.90;;;;;;4998338;28;20182;-81
2022/11/26 09:11:10;;;;;;;21.00;7.57;;;9.20;99.90;;;;;;5018027;28;20155;-86
2022/11/26 09:13:42;;;;;;;25.77;11.07;;;9.30;99.90;;;;;;5015728;28;20179;-81
2022/11/26 09:16:13;;;;;;;15.33;6.90;;;9.40;99.90;;;;;;5007968;28;20175;-81
2022/11/26 09:19:13;;;;;;;22.70;7.70;;;9.60;99.90;;;;;;5004704;28;20268;-84
2022/11/26 09:21:40;;;;;;;21.40;7.50;;;9.60;99.90;;;;;;5002003;28;20261;-80
2022/11/26 09:24:16;;;;;;;19.63;6.87;;;9.90;99.90;;;;;;4985463;28;20210;-88
2022/11/26 09:26:47;;;;;;;21.20;7.37;;;9.80;99.90;;;;;;4997321;28;20166;-84
2022/11/26 09:29:23;;;;;;;18.73;7.00;;;9.90;99.90;;;;;;5001521;28;20243;-80
2022/11/26 09:31:54;;;;;;;16.93;6.97;;;9.90;99.90;;;;;;4997352;28;20197;-84
2022/11/26 09:34:20;;;;;;;19.80;6.87;;;9.80;99.90;;;;;;4997892;28;20214;-86
2022/11/26 09:36:47;;;;;;;22.73;6.87;;;9.70;99.90;;;;;;4979767;28;20171;-86
2022/11/26 09:39:13;;;;;;;19.47;7.97;;;9.70;99.90;;;;;;4985167;28;20210;-84
2022/11/26 09:41:53;;;;;;;19.60;6.77;;;9.70;99.90;;;;;;5002114;28;20202;-86
2022/11/26 09:45:04;;;;;;;18.60;6.83;;;9.90;99.90;;;;;;5016643;28;20204;-83
2022/11/26 09:47:39;;;;;;;21.43;7.30;;;10.00;99.90;;;;;;4997719;28;20183;-82
2022/11/26 09:50:14;;;;;;;18.80;7.10;;;10.10;99.90;;;;;;5018641;28;20221;-82
2022/11/26 09:53:00;;;;;;;19.00;6.57;;;10.10;99.90;;;;;;5018302;28;20178;-81
2022/11/26 09:55:30;;;;;;;21.17;7.50;;;10.20;99.90;;;;;;5014755;28;20173;-81
2022/11/26 09:58:19;;;;;;;15.83;5.97;;;10.10;99.90;;;;;;4997799;28;20178;-80
2022/11/26 10:00:48;;;;;;;17.13;6.37;;;10.10;99.90;;;;;;4998040;28;20202;-84
2022/11/26 10:03:21;;;;;;;16.83;5.90;;;10.20;99.90;;;;;;5018594;28;20272;-81
2022/11/26 10:06:15;;;;;;;19.43;6.27;;;10.30;99.90;;;;;;5018289;28;20174;-82
2022/11/26 10:09:00;;;;;;;17.70;6.33;;;10.40;99.90;;;;;;5002068;28;20184;-80
2022/11/26 10:11:55;;;;;;;14.53;5.70;;;10.40;99.90;;;;;;5001586;28;20240;-84
2022/11/26 10:14:48;;;;;;;16.47;6.23;;;10.40;99.90;;;;;;5017831;28;20241;-83
2022/11/26 10:17:49;;;;;;;15.90;5.13;;;10.50;99.90;;;;;;5019605;28;20162;-80
2022/11/26 10:20:22;;;;;;;22.73;6.93;;;10.60;99.90;;;;;;5000708;28;20169;-80
2022/11/26 10:23:11;;;;;;;19.73;7.13;;;10.80;99.90;;;;;;5017937;28;20244;-82
2022/11/26 10:26:03;;;;;;;17.37;5.87;;;10.70;99.90;;;;;;5000264;28;20261;-81
2022/11/26 10:28:50;;;;;;;18.43;5.70;;;10.60;99.90;;;;;;5014269;28;20217;-82
2022/11/26 10:31:22;;;;;;;17.97;5.20;;;10.80;99.90;;;;;;5016782;28;20190;-80
2022/11/26 10:34:00;;;;;;;13.23;5.20;;;10.80;99.90;;;;;;5016766;28;20174;-87
2022/11/26 10:36:42;;;;;;;15.60;5.60;;;10.90;99.80;;;;;;5000283;28;20229;-82
2022/11/26 10:39:13;;;;;;;18.40;5.00;;;10.90;99.70;;;;;;5019039;28;20167;-81
2022/11/26 10:41:39;;;;;;;15.10;4.80;;;11.00;99.40;;;;;;5004282;28;20182;-80
2022/11/26 10:44:28;;;;;;;17.07;5.53;;;11.00;98.70;;;;;;5025342;28;20214;-84
2022/11/26 10:46:55;;;;;;;15.50;5.03;;;11.00;97.20;;;;;;5001787;28;20250;-81
2022/11/26 10:49:22;;;;;;;13.83;4.50;;;11.20;96.60;;;;;;5021509;28;20538;-80
2022/11/26 10:52:07;;;;;;;17.20;5.67;;;11.30;94.70;;;;;;5001244;28;20166;-80
2022/11/26 10:54:36;;;;;;;19.10;5.57;;;11.50;93.90;;;;;;5003965;28;20175;-80
2022/11/26 10:57:16;;;;;;;12.10;4.50;;;11.30;94.40;;;;;;4987488;28;20357;-81
2022/11/26 10:59:50;;;;;;;15.47;4.90;;;11.10;95.30;;;;;;5001096;28;20213;-81
2022/11/26 11:02:37;;;;;;;22.23;5.63;;;11.20;95.90;;;;;;5024524;28;20216;-80
2022/11/26 11:05:07;;;;;;;17.67;5.23;;;11.30;95.10;;;;;;4983253;28;20258;-80
2022/11/26 11:07:32;;;;;;;15.50;4.87;;;11.30;94.20;;;;;;5003163;28;20194;-82
2022/11/26 11:10:16;;;;;;;15.23;4.80;;;11.30;94.70;;;;;;4983308;28;20591;-82
2022/11/26 11:12:48;;;;;;;20.63;6.40;;;11.40;93.60;;;;;;5025685;28;20615;-80
2022/11/26 11:15:17;;;;;;;16.30;5.30;;;11.50;93.00;;;;;;5012608;28;20167;-81
2022/11/26 11:17:45;;;;;;;12.63;4.83;;;11.40;92.20;;;;;;5001941;28;20170;-83
2022/11/26 11:20:15;;;;;;;23.03;5.40;;;11.40;92.90;;;;;;5005159;28;20282;-82
2022/11/26 11:22:43;;;;;;;15.77;4.90;;;11.40;92.60;;;;;;5022370;28;20210;-82
2022/11/26 11:25:30;;;;;;;18.97;4.97;;;11.60;91.80;;;;;;5007167;28;20595;-81
2022/11/26 11:28:11;;;;;;;19.80;4.97;;;11.50;91.70;;;;;;5004645;28;20170;-85
2022/11/26 11:30:38;;;;;;;14.23;5.00;;;11.50;91.70;;;;;;5001634;28;20182;-81
2022/11/26 11:33:20;;;;;;;20.83;4.77;;;11.50;92.10;;;;;;4981758;28;20531;-80
2022/11/26 11:36:10;;;;;;;16.07;5.23;;;11.50;92.30;;;;;;4985408;28;20174;-82
2022/11/26 11:38:50;;;;;;;16.37;5.57;;;11.60;93.10;;;;;;4983194;28;20171;-81
2022/11/26 11:41:31;;;;;;;19.90;5.07;;;11.80;90.70;;;;;;4981927;28;20202;-82
2022/11/26 11:44:22;;;;;;;13.53;4.60;;;11.80;90.50;;;;;;5010722;28;20213;-82
2022/11/26 11:46:57;;;;;;;18.50;4.33;;;11.90;90.50;;;;;;5030163;28;20197;-84
2022/11/26 11:49:48;;;;;;;16.63;5.27;;;11.80;90.30;;;;;;5031286;28;20169;-84
2022/11/26 11:52:53;;;;;;;14.00;4.87;;;11.90;89.00;;;;;;5032184;28;20238;-82
2022/11/26 11:56:07;;;;;;;15.20;4.87;;;11.90;89.40;;;;;;5027653;28;20178;-84
2022/11/26 11:59:07;;;;;;;15.83;5.60;;;12.00;89.60;;;;;;5033824;28;20166;-83
2022/11/26 12:02:14;;;;;;;18.53;5.20;;;12.00;88.00;;;;;;4960280;29;20216;-84
2022/11/26 12:05:24;;;;;;;18.73;5.53;;;12.00;86.90;;;;;;4921310;29;20222;-84
2022/11/26 12:07:59;;;;;;;16.23;4.43;;;12.00;86.80;;;;;;5024831;28;20171;-87
2022/11/26 12:11:02;;;;;;;14.73;5.03;;;12.00;86.50;;;;;;5011633;28;20146;-84
2022/11/26 12:13:30;;;;;;;18.43;5.37;;;12.10;85.60;;;;;;5007681;28;20171;-85
2022/11/26 12:16:06;;;;;;;21.57;5.43;;;12.10;85.40;;;;;;5016104;28;20167;-83
2022/11/26 12:19:14;;;;;;;20.00;5.80;;;12.20;83.20;;;;;;4999490;28;20253;-83
2022/11/26 12:21:49;;;;;;;15.23;4.77;;;12.20;80.80;;;;;;4965001;29;20186;-84
2022/11/26 12:25:01;;;;;;;17.30;5.10;;;12.40;77.30;;;;;;4991570;28;20216;-85
2022/11/26 12:27:46;;;;;;;18.93;4.37;;;12.40;76.50;;;;;;5026290;28;20190;-85
2022/11/26 12:30:35;;;;;;;15.00;4.70;;;12.30;74.70;;;;;;5008603;28;20247;-83
2022/11/26 12:33:35;;;;;;;14.77;4.50;;;12.20;72.60;;;;;;4995090;28;20209;-84
2022/11/26 12:36:31;;;;;;;14.80;4.80;;;12.20;74.00;;;;;;5014307;28;20254;-82
2022/11/26 12:39:17;;;;;;;21.60;4.67;;;12.40;68.30;;;;;;5011681;28;20182;-83
2022/11/26 12:41:54;;;;;;;15.67;4.97;;;12.40;66.30;;;;;;5027221;28;20169;-82
2022/11/26 12:44:48;;;;;;;18.23;4.80;;;12.40;67.30;;;;;;5009192;28;20317;-82
2022/11/26 12:47:27;;;;;;;15.97;4.67;;;12.40;67.80;;;;;;5001657;28;20228;-81
2022/11/26 12:50:08;;;;;;;15.37;4.67;;;12.40;70.00;;;;;;5010117;28;20185;-82
2022/11/26 12:52:56;;;;;;;13.77;4.50;;;12.60;67.20;;;;;;5020749;28;20532;-79
2022/11/26 12:55:33;;;;;;;18.33;5.17;;;12.50;64.80;;;;;;5001543;28;20178;-81
2022/11/26 12:58:33;;;;;;;15.57;4.20;;;12.70;63.60;;;;;;5022648;28;20248;-83
2022/11/26 13:00:59;;;;;;;19.73;4.40;;;12.80;58.60;;;;;;5021200;28;20205;-84
2022/11/26 13:03:32;;;;;;;19.83;4.50;;;12.70;58.50;;;;;;5002835;28;20222;-84
2022/11/26 13:06:26;;;;;;;15.03;5.27;;;12.80;58.10;;;;;;5018512;28;20171;-82
2022/11/26 13:09:02;;;;;;;17.70;4.43;;;12.80;56.80;;;;;;5017814;28;20160;-81
2022/11/26 13:11:53;;;;;;;11.87;4.17;;;12.60;59.90;;;;;;5002482;28;20177;-82
2022/11/26 13:14:31;;;;;;;17.60;4.83;;;12.60;60.70;;;;;;5017760;28;20158;-81